createdAt,value
2018-04-15T00:00:37.430Z,99.99
2018-04-15T00:01:37.359Z,99.99
2018-04-15T00:02:37.433Z,99.99
2018-04-15T00:03:37.432Z,99.99
2018-04-15T00:04:37.436Z,99.99
2018-04-15T00:05:37.431Z,99.99
2018-04-15T00:06:37.440Z,99.99
2018-04-15T00:07:37.357Z,99.99
2018-04-15T00:08:37.456Z,99.99
2018-04-15T00:09:37.411Z,99.99
2018-04-15T00:10:37.355Z,99.99
2018-04-15T00:11:37.434Z,99.99
2018-04-15T00:12:37.440Z,99.99
2018-04-15T00:13:37.356Z,99.99
2018-04-15T00:14:37.415Z,99.99
2018-04-15T00:15:37.412Z,99.99
2018-04-15T00:16:37.365Z,99.99
2018-04-15T00:17:37.417Z,99.99
2018-04-15T00:18:37.499Z,99.99
2018-04-15T00:19:37.437Z,99.99
2018-04-15T00:20:37.440Z,99.99
2018-04-15T00:21:37.444Z,99.99
2018-04-15T00:22:37.368Z,99.99
2018-04-15T00:23:37.456Z,99.99
2018-04-15T00:24:37.436Z,99.99
2018-04-15T00:25:37.364Z,99.99
2018-04-15T00:26:37.368Z,99.99
2018-04-15T00:27:37.370Z,99.99
2018-04-15T00:28:37.444Z,99.99
2018-04-15T00:29:37.370Z,99.99
2018-04-15T00:30:37.371Z,99.99
2018-04-15T00:31:37.442Z,99.99
2018-04-15T00:32:37.445Z,99.99
2018-04-15T00:33:37.370Z,99.99
2018-04-15T00:34:37.452Z,99.99
2018-04-15T00:35:37.384Z,99.99
2018-04-15T00:36:37.381Z,99.99
2018-04-15T00:37:37.460Z,99.99
2018-04-15T00:38:37.460Z,99.99
2018-04-15T00:39:37.458Z,99.99
2018-04-15T00:40:37.458Z,99.99
2018-04-15T00:41:37.460Z,99.99
2018-04-15T00:42:37.384Z,99.99
2018-04-15T00:43:37.466Z,99.99
2018-04-15T00:44:37.456Z,99.99
2018-04-15T00:45:37.430Z,99.99
2018-04-15T00:46:37.381Z,99.99
2018-04-15T00:47:37.521Z,99.99
2018-04-15T00:48:37.455Z,99.99
2018-04-15T00:49:37.455Z,99.99
2018-04-15T00:50:37.491Z,99.99
2018-04-15T00:51:37.458Z,99.99
2018-04-15T00:52:37.464Z,99.99
2018-04-15T00:53:37.498Z,99.99
2018-04-15T00:54:37.434Z,99.99
2018-04-15T00:55:37.493Z,99.99
2018-04-15T00:56:37.381Z,99.99
2018-04-15T00:57:37.467Z,99.99
2018-04-15T00:58:37.483Z,99.99
2018-04-15T00:59:37.493Z,99.99
2018-04-15T01:00:37.431Z,99.99
2018-04-15T01:01:37.473Z,99.99
2018-04-15T01:02:37.392Z,99.99
2018-04-15T01:03:37.391Z,99.99
2018-04-15T01:04:37.400Z,99.99
2018-04-15T01:05:37.398Z,99.99
2018-04-15T01:06:37.401Z,99.99
2018-04-15T01:07:37.402Z,99.99
2018-04-15T01:08:37.515Z,99.99
2018-04-15T01:09:37.445Z,99.99
2018-04-15T01:10:37.405Z,99.99
2018-04-15T01:11:37.477Z,99.99
2018-04-15T01:12:37.499Z,99.99
2018-04-15T01:13:37.408Z,99.99
2018-04-15T01:14:37.425Z,99.99
2018-04-15T01:15:37.416Z,99.99
2018-04-15T01:16:37.371Z,99.99
2018-04-15T01:17:37.425Z,99.99
2018-04-15T01:18:37.483Z,99.99
2018-04-15T01:19:37.482Z,99.99
2018-04-15T01:20:37.409Z,99.99
2018-04-15T01:21:37.411Z,99.99
2018-04-15T01:22:37.413Z,99.99
2018-04-15T01:23:37.486Z,99.99
2018-04-15T01:24:37.475Z,99.99
2018-04-15T01:25:37.409Z,99.99
2018-04-15T01:26:37.365Z,99.99
2018-04-15T01:27:37.405Z,99.99
2018-04-15T01:28:37.478Z,99.99
2018-04-15T01:29:37.408Z,99.99
2018-04-15T01:30:37.477Z,99.99
2018-04-15T01:31:37.407Z,99.99
2018-04-15T01:32:37.409Z,99.99
2018-04-15T01:33:37.480Z,99.99
2018-04-15T01:34:37.378Z,99.99
2018-04-15T01:35:37.518Z,99.99
2018-04-15T01:36:37.489Z,99.99
2018-04-15T01:37:37.422Z,99.99
2018-04-15T01:38:37.495Z,99.99
2018-04-15T01:39:37.449Z,99.99
2018-04-15T01:40:37.499Z,99.99
2018-04-15T01:41:37.437Z,99.99
2018-04-15T01:42:37.384Z,99.99
2018-04-15T01:43:37.423Z,99.99
2018-04-15T01:44:37.429Z,99.99
2018-04-15T01:45:37.427Z,99.99
2018-04-15T01:46:37.427Z,99.99
2018-04-15T01:47:37.427Z,99.99
2018-04-15T01:48:37.444Z,99.99
2018-04-15T01:49:37.506Z,99.99
2018-04-15T01:50:37.501Z,99.99
2018-04-15T01:51:37.508Z,99.99
2018-04-15T01:52:37.432Z,99.99
2018-04-15T01:53:37.628Z,99.99
2018-04-15T01:54:37.503Z,99.99
2018-04-15T01:55:37.445Z,99.99
2018-04-15T01:56:37.507Z,99.99
2018-04-15T01:57:37.434Z,99.99
2018-04-15T01:58:37.510Z,99.99
2018-04-15T01:59:37.478Z,99.99
2018-04-15T02:00:37.606Z,99.99
2018-04-15T02:01:37.439Z,99.99
2018-04-15T02:02:37.453Z,99.99
2018-04-15T02:03:37.511Z,99.99
2018-04-15T02:04:37.506Z,99.99
2018-04-15T02:05:37.506Z,99.99
2018-04-15T02:06:37.503Z,99.99
2018-04-15T02:07:37.447Z,99.99
2018-04-15T02:08:37.486Z,99.99
2018-04-15T02:09:37.445Z,99.99
2018-04-15T02:10:37.511Z,99.99
2018-04-15T02:11:37.448Z,99.99
2018-04-15T02:12:37.509Z,99.99
2018-04-15T02:13:37.449Z,99.99
2018-04-15T02:14:37.401Z,99.99
2018-04-15T02:15:37.533Z,99.99
2018-04-15T02:16:37.444Z,99.99
2018-04-15T02:17:37.445Z,99.99
2018-04-15T02:18:37.521Z,99.99
2018-04-15T02:19:37.544Z,99.99
2018-04-15T02:20:37.449Z,99.99
2018-04-15T02:21:37.573Z,99.99
2018-04-15T02:22:37.522Z,99.99
2018-04-15T02:23:37.451Z,99.99
2018-04-15T02:24:37.449Z,99.99
2018-04-15T02:25:37.453Z,99.99
2018-04-15T02:26:37.530Z,99.99
2018-04-15T02:27:37.454Z,99.99
2018-04-15T02:28:37.529Z,99.99
2018-04-15T02:29:37.461Z,99.99
2018-04-15T02:30:37.458Z,99.99
2018-04-15T02:31:37.547Z,99.99
2018-04-15T02:32:37.453Z,99.99
2018-04-15T02:33:37.458Z,99.99
2018-04-15T02:34:37.565Z,99.99
2018-04-15T02:35:37.530Z,99.99
2018-04-15T02:36:37.584Z,99.99
2018-04-15T02:37:37.456Z,99.99
2018-04-15T02:38:37.568Z,99.99
2018-04-15T02:39:37.527Z,99.99
2018-04-15T02:40:37.527Z,99.99
2018-04-15T02:41:37.562Z,99.99
2018-04-15T02:42:37.540Z,99.99
2018-04-15T02:43:37.562Z,99.99
2018-04-15T02:44:37.527Z,99.99
2018-04-15T02:45:37.461Z,99.99
2018-04-15T02:46:37.461Z,99.99
2018-04-15T02:47:37.546Z,99.99
2018-04-15T02:48:37.463Z,99.99
2018-04-15T02:49:37.542Z,99.99
2018-04-15T02:50:37.461Z,99.99
2018-04-15T02:51:37.531Z,99.99
2018-04-15T02:52:37.459Z,99.99
2018-04-15T02:53:37.531Z,99.99
2018-04-15T02:54:37.540Z,99.99
2018-04-15T02:55:37.477Z,99.99
2018-04-15T02:56:37.442Z,99.99
2018-04-15T02:57:37.564Z,99.99
2018-04-15T02:58:37.571Z,99.99
2018-04-15T02:59:37.540Z,99.99
2018-04-15T03:00:37.555Z,99.99
2018-04-15T03:01:37.545Z,99.99
2018-04-15T03:02:37.611Z,99.99
2018-04-15T03:03:37.587Z,99.99
2018-04-15T03:04:37.554Z,99.99
2018-04-15T03:05:37.480Z,99.99
2018-04-15T03:06:37.556Z,99.99
2018-04-15T03:07:37.554Z,99.99
2018-04-15T03:08:37.497Z,99.99
2018-04-15T03:09:37.554Z,99.99
2018-04-15T03:10:37.557Z,99.99
2018-04-15T03:11:37.479Z,99.99
2018-04-15T03:12:37.556Z,99.99
2018-04-15T03:13:37.499Z,99.99
2018-04-15T03:14:37.547Z,99.99
2018-04-15T03:15:37.581Z,99.99
2018-04-15T03:16:37.529Z,99.99
2018-04-15T03:17:37.612Z,99.99
2018-04-15T03:18:37.555Z,99.99
2018-04-15T03:19:37.552Z,99.99
2018-04-15T03:20:37.536Z,99.99
2018-04-15T03:21:37.553Z,99.99
2018-04-15T03:22:37.527Z,99.99
2018-04-15T03:23:37.482Z,99.99
2018-04-15T03:24:37.581Z,99.99
2018-04-15T03:25:37.592Z,99.99
2018-04-15T03:26:37.556Z,99.99
2018-04-15T03:27:37.524Z,99.99
2018-04-15T03:28:37.496Z,99.99
2018-04-15T03:29:37.465Z,99.99
2018-04-15T03:30:37.484Z,99.99
2018-04-15T03:31:37.530Z,99.99
2018-04-15T03:32:37.590Z,99.99
2018-04-15T03:33:37.528Z,99.99
2018-04-15T03:34:37.623Z,99.99
2018-04-15T03:35:37.534Z,99.99
2018-04-15T03:36:37.545Z,99.99
2018-04-15T03:37:37.626Z,99.99
2018-04-15T03:38:37.534Z,99.99
2018-04-15T03:39:37.602Z,99.99
2018-04-15T03:40:37.628Z,99.99
2018-04-15T03:41:37.595Z,99.99
2018-04-15T03:42:37.473Z,99.99
2018-04-15T03:43:37.698Z,99.99
2018-04-15T03:44:37.575Z,99.99
2018-04-15T03:45:37.575Z,99.99
2018-04-15T03:46:37.500Z,99.99
2018-04-15T03:47:37.511Z,99.99
2018-04-15T03:48:37.579Z,99.99
2018-04-15T03:49:37.502Z,99.99
2018-04-15T03:50:37.579Z,99.99
2018-04-15T03:51:37.550Z,99.99
2018-04-15T03:52:37.511Z,99.99
2018-04-15T03:53:37.507Z,99.99
2018-04-15T03:54:37.507Z,99.99
2018-04-15T03:55:37.548Z,99.99
2018-04-15T03:56:37.507Z,99.99
2018-04-15T03:57:37.590Z,99.99
2018-04-15T03:58:37.632Z,99.99
2018-04-15T03:59:37.647Z,99.99
2018-04-15T04:00:37.585Z,99.99
2018-04-15T04:01:37.527Z,99.99
2018-04-15T04:02:37.584Z,99.99
2018-04-15T04:03:37.524Z,99.99
2018-04-15T04:04:37.610Z,99.99
2018-04-15T04:05:37.607Z,99.99
2018-04-15T04:06:37.582Z,99.99
2018-04-15T04:07:37.641Z,99.99
2018-04-15T04:08:37.645Z,99.99
2018-04-15T04:09:37.644Z,99.99
2018-04-15T04:10:37.643Z,99.99
2018-04-15T04:11:37.585Z,99.99
2018-04-15T04:12:37.649Z,99.99
2018-04-15T04:13:37.608Z,99.99
2018-04-15T04:14:37.714Z,99.99
2018-04-15T04:15:37.554Z,99.99
2018-04-15T04:16:37.605Z,99.99
2018-04-15T04:17:37.614Z,99.99
2018-04-15T04:18:37.525Z,99.99
2018-04-15T04:19:37.523Z,99.99
2018-04-15T04:20:37.591Z,99.99
2018-04-15T04:21:37.618Z,99.99
2018-04-15T04:22:37.592Z,99.99
2018-04-15T04:23:37.594Z,99.99
2018-04-15T04:24:37.606Z,99.99
2018-04-15T04:25:37.526Z,99.99
2018-04-15T04:26:37.603Z,99.99
2018-04-15T04:27:37.498Z,99.99
2018-04-15T04:28:37.531Z,99.99
2018-04-15T04:29:37.601Z,99.99
2018-04-15T04:30:37.529Z,99.99
2018-04-15T04:31:37.603Z,99.99
2018-04-15T04:32:37.533Z,99.99
2018-04-15T04:33:37.529Z,99.99
2018-04-15T04:34:37.504Z,99.99
2018-04-15T04:35:37.666Z,99.99
2018-04-15T04:36:37.518Z,99.99
2018-04-15T04:37:37.640Z,99.99
2018-04-15T04:38:37.663Z,99.99
2018-04-15T04:39:37.611Z,99.99
2018-04-15T04:40:37.609Z,99.99
2018-04-15T04:41:37.582Z,99.99
2018-04-15T04:42:37.628Z,99.99
2018-04-15T04:43:37.568Z,99.99
2018-04-15T04:44:37.557Z,99.99
2018-04-15T04:45:37.529Z,99.99
2018-04-15T04:46:37.500Z,99.99
2018-04-15T04:47:37.576Z,99.99
2018-04-15T04:48:37.470Z,99.99
2018-04-15T04:49:37.530Z,99.99
2018-04-15T04:50:37.570Z,99.99
2018-04-15T04:51:37.475Z,99.99
2018-04-15T04:52:37.473Z,99.99
2018-04-15T04:53:37.566Z,99.99
2018-04-15T04:54:37.560Z,99.99
2018-04-15T04:55:37.621Z,99.99
2018-04-15T04:56:37.621Z,99.99
2018-04-15T04:57:37.512Z,99.99
2018-04-15T04:58:37.549Z,99.99
2018-04-15T04:59:37.634Z,99.99
2018-04-15T05:00:37.510Z,99.99
2018-04-15T05:01:37.578Z,99.99
2018-04-15T05:02:37.626Z,99.99
2018-04-15T05:03:37.551Z,99.99
2018-04-15T05:04:37.596Z,99.99
2018-04-15T05:05:37.650Z,99.99
2018-04-15T05:06:37.547Z,99.99
2018-04-15T05:07:37.608Z,99.99
2018-04-15T05:08:37.541Z,99.99
2018-04-15T05:09:37.598Z,99.99
2018-04-15T05:10:37.528Z,99.99
2018-04-15T05:11:37.546Z,99.99
2018-04-15T05:12:37.681Z,99.99
2018-04-15T05:13:37.627Z,99.99
2018-04-15T05:14:37.557Z,99.99
2018-04-15T05:15:37.527Z,99.99
2018-04-15T05:16:37.618Z,99.99
2018-04-15T05:17:37.532Z,99.99
2018-04-15T05:18:37.520Z,99.99
2018-04-15T05:19:37.608Z,99.99
2018-04-15T05:20:37.568Z,99.99
2018-04-15T05:21:37.564Z,99.99
2018-04-15T05:22:37.529Z,99.99
2018-04-15T05:23:37.525Z,99.99
2018-04-15T05:24:37.615Z,99.99
2018-04-15T05:25:37.609Z,99.99
2018-04-15T05:26:37.598Z,99.99
2018-04-15T05:27:37.594Z,99.99
2018-04-15T05:28:37.632Z,99.99
2018-04-15T05:29:37.635Z,99.99
2018-04-15T05:30:37.664Z,99.99
2018-04-15T05:31:37.633Z,99.99
2018-04-15T05:32:37.668Z,99.99
2018-04-15T05:33:37.616Z,99.99
2018-04-15T05:34:37.653Z,99.99
2018-04-15T05:35:37.667Z,99.99
2018-04-15T05:36:37.668Z,99.99
2018-04-15T05:37:37.677Z,99.99
2018-04-15T05:38:37.670Z,99.99
2018-04-15T05:39:37.614Z,99.99
2018-04-15T05:40:37.582Z,99.99
2018-04-15T05:41:37.614Z,99.99
2018-04-15T05:42:37.546Z,99.99
2018-04-15T05:43:37.585Z,99.99
2018-04-15T05:44:37.620Z,99.99
2018-04-15T05:45:37.625Z,99.99
2018-04-15T05:46:37.672Z,99.99
2018-04-15T05:47:37.665Z,99.99
2018-04-15T05:48:37.680Z,99.99
2018-04-15T05:49:37.643Z,99.99
2018-04-15T05:50:37.570Z,99.99
2018-04-15T05:51:37.674Z,99.99
2018-04-15T05:52:37.683Z,99.99
2018-04-15T05:53:37.564Z,99.99
2018-04-15T05:54:37.605Z,99.99
2018-04-15T05:55:37.641Z,99.99
2018-04-15T05:56:37.691Z,99.99
2018-04-15T05:57:37.555Z,99.99
2018-04-15T05:58:37.620Z,99.99
2018-04-15T05:59:37.631Z,99.99
2018-04-15T06:00:37.674Z,99.99
2018-04-15T06:01:37.693Z,99.99
2018-04-15T06:02:37.670Z,99.99
2018-04-15T06:03:37.628Z,99.99
2018-04-15T06:04:37.682Z,99.99
2018-04-15T06:05:37.660Z,99.99
2018-04-15T06:06:37.659Z,99.99
2018-04-15T06:07:37.589Z,99.99
2018-04-15T06:08:37.668Z,99.99
2018-04-15T06:09:37.654Z,99.99
2018-04-15T06:10:37.590Z,99.99
2018-04-15T06:11:37.591Z,99.99
2018-04-15T06:12:37.687Z,99.99
2018-04-15T06:13:37.592Z,99.99
2018-04-15T06:14:37.665Z,99.99
2018-04-15T06:15:37.597Z,99.99
2018-04-15T06:16:37.691Z,99.99
2018-04-15T06:17:37.726Z,99.99
2018-04-15T06:18:37.704Z,99.99
2018-04-15T06:19:37.698Z,99.99
2018-04-15T06:20:37.583Z,99.99
2018-04-15T06:21:37.709Z,99.99
2018-04-15T06:22:37.639Z,99.99
2018-04-15T06:23:37.648Z,99.99
2018-04-15T06:24:37.637Z,99.99
2018-04-15T06:25:37.587Z,99.99
2018-04-15T06:26:37.632Z,99.99
2018-04-15T06:27:37.647Z,99.99
2018-04-15T06:28:37.648Z,99.99
2018-04-15T06:29:37.611Z,99.99
2018-04-15T06:30:37.594Z,99.99
2018-04-15T06:31:37.597Z,99.99
2018-04-15T06:32:37.718Z,99.99
2018-04-15T06:33:37.771Z,99.99
2018-04-15T06:34:37.623Z,99.99
2018-04-15T06:35:37.713Z,99.99
2018-04-15T06:36:37.719Z,99.99
2018-04-15T06:37:37.640Z,99.99
2018-04-15T06:38:37.718Z,99.99
2018-04-15T06:39:37.706Z,99.99
2018-04-15T06:40:37.713Z,99.99
2018-04-15T06:41:37.677Z,99.99
2018-04-15T06:42:37.700Z,99.99
2018-04-15T06:43:37.689Z,99.99
2018-04-15T06:44:37.695Z,99.99
2018-04-15T06:45:37.711Z,99.99
2018-04-15T06:46:37.684Z,99.99
2018-04-15T06:47:37.656Z,99.99
2018-04-15T06:48:37.602Z,99.99
2018-04-15T06:49:37.663Z,99.99
2018-04-15T06:50:37.684Z,99.99
2018-04-15T06:51:37.666Z,99.99
2018-04-15T06:52:37.722Z,99.99
2018-04-15T06:53:37.681Z,99.99
2018-04-15T06:54:37.625Z,99.99
2018-04-15T06:55:37.658Z,99.99
2018-04-15T06:56:37.698Z,99.99
2018-04-15T06:57:37.625Z,99.99
2018-04-15T06:58:37.719Z,99.99
2018-04-15T06:59:37.699Z,99.99
2018-04-15T07:00:37.627Z,99.99
2018-04-15T07:01:37.699Z,99.99
2018-04-15T07:02:37.663Z,99.99
2018-04-15T07:03:37.689Z,99.99
2018-04-15T07:04:37.655Z,99.99
2018-04-15T07:05:37.696Z,99.99
2018-04-15T07:06:37.702Z,99.99
2018-04-15T07:07:37.625Z,99.99
2018-04-15T07:08:37.625Z,99.99
2018-04-15T07:09:37.703Z,99.99
2018-04-15T07:10:37.698Z,99.99
2018-04-15T07:11:37.704Z,99.99
2018-04-15T07:12:37.628Z,99.99
2018-04-15T07:13:37.701Z,99.99
2018-04-15T07:14:37.630Z,99.99
2018-04-15T07:15:37.631Z,99.99
2018-04-15T07:16:37.635Z,99.99
2018-04-15T07:17:37.703Z,99.99
2018-04-15T07:18:37.676Z,99.99
2018-04-15T07:19:37.634Z,99.99
2018-04-15T07:20:37.632Z,99.99
2018-04-15T07:21:37.639Z,99.99
2018-04-15T07:22:37.712Z,99.99
2018-04-15T07:23:37.635Z,99.99
2018-04-15T07:24:37.711Z,99.99
2018-04-15T07:25:37.638Z,99.99
2018-04-15T07:26:37.661Z,99.99
2018-04-15T07:27:37.597Z,99.99
2018-04-15T07:28:37.690Z,99.99
2018-04-15T07:29:37.602Z,99.99
2018-04-15T07:30:37.689Z,99.99
2018-04-15T07:31:37.605Z,99.99
2018-04-15T07:32:37.670Z,99.99
2018-04-15T07:33:37.704Z,99.99
2018-04-15T07:34:37.603Z,99.99
2018-04-15T07:35:37.718Z,99.99
2018-04-15T07:36:37.715Z,99.99
2018-04-15T07:37:37.714Z,99.99
2018-04-15T07:38:37.717Z,99.99
2018-04-15T07:39:37.710Z,99.99
2018-04-15T07:40:37.645Z,99.99
2018-04-15T07:41:37.685Z,99.99
2018-04-15T07:42:37.647Z,99.99
2018-04-15T07:43:37.651Z,99.99
2018-04-15T07:44:37.719Z,99.99
2018-04-15T07:45:37.688Z,99.99
2018-04-15T07:46:37.753Z,99.99
2018-04-15T07:47:37.760Z,99.99
2018-04-15T07:48:37.680Z,99.99
2018-04-15T07:49:37.719Z,99.99
2018-04-15T07:50:37.778Z,99.99
2018-04-15T07:51:37.684Z,99.99
2018-04-15T07:52:37.626Z,99.99
2018-04-15T07:53:37.764Z,99.99
2018-04-15T07:54:37.724Z,99.99
2018-04-15T07:55:37.729Z,99.99
2018-04-15T07:56:37.724Z,99.99
2018-04-15T07:57:37.632Z,99.99
2018-04-15T07:58:37.786Z,99.99
2018-04-15T07:59:37.749Z,99.99
2018-04-15T08:00:37.787Z,99.99
2018-04-15T08:01:37.695Z,99.99
2018-04-15T08:02:37.770Z,99.99
2018-04-15T08:03:37.703Z,99.99
2018-04-15T08:04:37.699Z,99.99
2018-04-15T08:05:37.668Z,99.99
2018-04-15T08:06:37.661Z,99.99
2018-04-15T08:07:37.763Z,99.99
2018-04-15T08:08:37.679Z,99.99
2018-04-15T08:09:37.739Z,99.99
2018-04-15T08:10:37.666Z,99.99
2018-04-15T08:11:37.717Z,99.99
2018-04-15T08:12:37.666Z,99.99
2018-04-15T08:13:37.678Z,99.99
2018-04-15T08:14:37.668Z,99.99
2018-04-15T08:15:37.740Z,99.99
2018-04-15T08:16:37.668Z,99.99
2018-04-15T08:17:37.627Z,99.99
2018-04-15T08:18:37.726Z,99.99
2018-04-15T08:19:37.742Z,99.99
2018-04-15T08:20:37.744Z,99.99
2018-04-15T08:21:37.673Z,99.99
2018-04-15T08:22:37.746Z,99.99
2018-04-15T08:23:37.675Z,99.99
2018-04-15T08:24:37.677Z,99.99
2018-04-15T08:25:37.669Z,99.99
2018-04-15T08:26:37.702Z,99.99
2018-04-15T08:27:37.708Z,99.99
2018-04-15T08:28:37.699Z,99.99
2018-04-15T08:29:37.746Z,99.99
2018-04-15T08:30:37.669Z,99.99
2018-04-15T08:31:37.887Z,99.99
2018-04-15T08:32:37.650Z,99.99
2018-04-15T08:33:37.652Z,99.99
2018-04-15T08:34:37.751Z,99.99
2018-04-15T08:35:37.807Z,99.99
2018-04-15T08:36:37.774Z,99.99
2018-04-15T08:37:37.727Z,99.99
2018-04-15T08:38:37.732Z,99.99
2018-04-15T08:39:37.759Z,99.99
2018-04-15T08:40:37.669Z,99.99
2018-04-15T08:41:37.718Z,99.99
2018-04-15T08:42:37.753Z,99.99
2018-04-15T08:43:37.719Z,99.99
2018-04-15T08:44:37.725Z,99.99
2018-04-15T08:45:37.726Z,99.99
2018-04-15T08:46:37.674Z,99.99
2018-04-15T08:47:37.701Z,99.99
2018-04-15T08:48:37.762Z,99.99
2018-04-15T08:49:37.756Z,99.99
2018-04-15T08:50:37.758Z,99.83
2018-04-15T08:51:37.799Z,99.62
2018-04-15T08:52:37.729Z,99.29
2018-04-15T08:53:37.841Z,99.40
2018-04-15T08:54:37.767Z,99.37
2018-04-15T08:55:37.764Z,99.59
2018-04-15T08:56:37.764Z,99.70
2018-04-15T08:57:37.703Z,99.37
2018-04-15T08:58:37.771Z,99.48
2018-04-15T08:59:37.693Z,99.72
2018-04-15T09:00:37.816Z,99.75
2018-04-15T09:01:37.700Z,99.99
2018-04-15T09:02:37.695Z,99.99
2018-04-15T09:03:37.700Z,99.53
2018-04-15T09:04:37.700Z,99.48
2018-04-15T09:05:37.731Z,99.45
2018-04-15T09:06:37.793Z,99.59
2018-04-15T09:07:37.742Z,99.40
2018-04-15T09:08:37.744Z,99.48
2018-04-15T09:09:37.745Z,99.45
2018-04-15T09:10:37.709Z,99.34
2018-04-15T09:11:37.751Z,99.21
2018-04-15T09:12:37.796Z,98.94
2018-04-15T09:13:37.728Z,98.91
2018-04-15T09:14:37.810Z,98.91
2018-04-15T09:15:37.696Z,98.94
2018-04-15T09:16:37.807Z,98.45
2018-04-15T09:17:37.782Z,97.55
2018-04-15T09:18:37.715Z,97.83
2018-04-15T09:19:37.777Z,97.47
2018-04-15T09:20:37.800Z,96.02
2018-04-15T09:21:37.777Z,95.58
2018-04-15T09:22:37.743Z,95.66
2018-04-15T09:23:37.820Z,95.39
2018-04-15T09:24:37.760Z,94.34
2018-04-15T09:25:37.786Z,94.77
2018-04-15T09:26:37.787Z,95.34
2018-04-15T09:27:37.786Z,95.28
2018-04-15T09:28:37.786Z,95.34
2018-04-15T09:29:37.757Z,95.34
2018-04-15T09:30:37.712Z,94.21
2018-04-15T09:31:37.787Z,94.15
2018-04-15T09:32:37.720Z,91.84
2018-04-15T09:33:37.720Z,91.30
2018-04-15T09:34:37.716Z,92.30
2018-04-15T09:35:37.884Z,92.81
2018-04-15T09:36:37.766Z,93.02
2018-04-15T09:37:37.809Z,92.73
2018-04-15T09:38:37.757Z,91.82
2018-04-15T09:39:37.707Z,91.33
2018-04-15T09:40:37.765Z,91.73
2018-04-15T09:41:37.761Z,92.08
2018-04-15T09:42:37.767Z,90.61
2018-04-15T09:43:37.758Z,90.34
2018-04-15T09:44:37.797Z,89.78
2018-04-15T09:45:37.786Z,90.23
2018-04-15T09:46:37.721Z,88.97
2018-04-15T09:47:37.700Z,88.62
2018-04-15T09:48:37.713Z,87.69
2018-04-15T09:49:37.757Z,88.73
2018-04-15T09:50:37.792Z,89.37
2018-04-15T09:51:37.700Z,89.03
2018-04-15T09:52:37.728Z,88.25
2018-04-15T09:53:37.794Z,88.76
2018-04-15T09:54:37.788Z,89.78
2018-04-15T09:55:37.798Z,90.15
2018-04-15T09:56:37.764Z,89.94
2018-04-15T09:57:37.812Z,89.48
2018-04-15T09:58:37.839Z,89.27
2018-04-15T09:59:37.786Z,89.24
2018-04-15T10:00:37.699Z,89.59
2018-04-15T10:01:37.832Z,90.93
2018-04-15T10:02:37.770Z,90.66
2018-04-15T10:03:37.747Z,90.34
2018-04-15T10:04:37.822Z,90.34
2018-04-15T10:05:37.765Z,90.93
2018-04-15T10:06:37.796Z,90.63
2018-04-15T10:07:37.721Z,90.53
2018-04-15T10:08:37.737Z,89.40
2018-04-15T10:09:37.696Z,89.16
2018-04-15T10:10:37.716Z,86.28
2018-04-15T10:11:37.729Z,85.43
2018-04-15T10:13:37.754Z,83.51
2018-04-15T10:14:37.803Z,83.38
2018-04-15T10:15:37.770Z,81.40
2018-04-15T10:16:37.730Z,81.18
2018-04-15T10:17:37.806Z,80.84
2018-04-15T10:18:37.804Z,79.07
2018-04-15T10:19:37.705Z,78.15
2018-04-15T10:20:37.730Z,79.89
2018-04-15T10:21:37.809Z,81.60
2018-04-15T10:22:37.807Z,80.13
2018-04-15T10:23:37.703Z,81.08
2018-04-15T10:24:37.735Z,79.79
2018-04-15T10:25:37.690Z,81.21
2018-04-15T10:26:37.773Z,82.21
2018-04-15T10:27:37.809Z,81.74
2018-04-15T10:28:37.832Z,81.95
2018-04-15T10:29:37.813Z,81.37
2018-04-15T10:30:37.712Z,81.40
2018-04-15T10:31:37.813Z,83.20
2018-04-15T10:32:37.808Z,82.45
2018-04-15T10:33:37.692Z,82.98
2018-04-15T10:34:37.757Z,80.29
2018-04-15T10:35:37.803Z,77.28
2018-04-15T10:36:37.850Z,77.23
2018-04-15T10:37:37.751Z,77.49
2018-04-15T10:38:37.743Z,79.89
2018-04-15T10:39:37.835Z,77.54
2018-04-15T10:40:37.765Z,76.83
2018-04-15T10:41:37.851Z,77.65
2018-04-15T10:42:37.744Z,77.04
2018-04-15T10:43:37.827Z,77.15
2018-04-15T10:44:37.797Z,76.41
2018-04-15T10:45:37.719Z,77.02
2018-04-15T10:46:37.763Z,77.57
2018-04-15T10:47:37.765Z,76.60
2018-04-15T10:48:37.764Z,75.10
2018-04-15T10:49:37.784Z,75.92
2018-04-15T10:50:37.837Z,75.89
2018-04-15T10:51:37.765Z,77.39
2018-04-15T10:52:37.837Z,76.70
2018-04-15T10:53:37.770Z,77.33
2018-04-15T10:54:37.872Z,78.33
2018-04-15T10:55:37.810Z,77.81
2018-04-15T10:56:37.796Z,78.09
2018-04-15T10:57:37.806Z,79.25
2018-04-15T10:58:37.873Z,81.32
2018-04-15T10:59:37.873Z,80.92
2018-04-15T11:00:37.765Z,80.65
2018-04-15T11:01:37.741Z,81.58
2018-04-15T11:02:37.820Z,81.05
2018-04-15T11:03:37.763Z,79.33
2018-04-15T11:04:37.745Z,78.25
2018-04-15T11:05:37.813Z,75.34
2018-04-15T11:06:37.770Z,76.73
2018-04-15T11:07:37.864Z,78.28
2018-04-15T11:08:37.896Z,76.31
2018-04-15T11:09:37.773Z,75.49
2018-04-15T11:10:37.872Z,74.50
2018-04-15T11:11:37.822Z,72.95
2018-04-15T11:12:37.848Z,71.94
2018-04-15T11:13:37.854Z,72.01
2018-04-15T11:14:37.874Z,72.12
2018-04-15T11:15:37.853Z,70.82
2018-04-15T11:16:37.781Z,69.30
2018-04-15T11:17:37.861Z,66.92
2018-04-15T11:18:37.791Z,66.69
2018-04-15T11:19:37.782Z,66.87
2018-04-15T11:20:37.787Z,67.05
2018-04-15T11:21:37.857Z,68.94
2018-04-15T11:22:37.787Z,67.16
2018-04-15T11:23:37.752Z,72.17
2018-04-15T11:24:37.858Z,70.82
2018-04-15T11:25:37.802Z,70.58
2018-04-15T11:26:37.885Z,68.84
2018-04-15T11:27:37.883Z,69.96
2018-04-15T11:28:37.890Z,69.26
2018-04-15T11:29:37.851Z,68.87
2018-04-15T11:30:37.859Z,67.05
2018-04-15T11:31:37.815Z,68.29
2018-04-15T11:32:37.857Z,71.81
2018-04-15T11:33:37.836Z,71.75
2018-04-15T11:34:37.779Z,67.31
2018-04-15T11:35:37.795Z,64.95
2018-04-15T11:36:37.913Z,67.52
2018-04-15T11:37:37.870Z,64.44
2018-04-15T11:38:37.797Z,64.80
2018-04-15T11:39:37.867Z,67.57
2018-04-15T11:40:37.796Z,65.24
2018-04-15T11:41:37.860Z,64.23
2018-04-15T11:42:37.798Z,66.48
2018-04-15T11:43:37.880Z,71.03
2018-04-15T11:44:37.868Z,65.22
2018-04-15T11:45:37.802Z,67.20
2018-04-15T11:46:37.853Z,67.60
2018-04-15T11:47:37.852Z,65.68
2018-04-15T11:48:37.847Z,64.80
2018-04-15T11:49:37.743Z,69.46
2018-04-15T11:50:37.854Z,64.49
2018-04-15T11:51:37.844Z,66.87
2018-04-15T11:52:37.761Z,62.66
2018-04-15T11:53:37.760Z,63.30
2018-04-15T11:54:37.734Z,63.95
2018-04-15T11:55:37.774Z,62.61
2018-04-15T11:56:37.833Z,62.74
2018-04-15T11:57:37.827Z,61.09
2018-04-15T11:58:37.909Z,61.84
2018-04-15T11:59:37.797Z,60.99
2018-04-15T12:00:37.899Z,62.10
2018-04-15T12:01:37.834Z,62.10
2018-04-15T12:02:37.918Z,62.66
2018-04-15T12:03:37.836Z,64.38
2018-04-15T12:04:37.912Z,63.56
2018-04-15T12:05:37.836Z,65.18
2018-04-15T12:06:37.845Z,64.75
2018-04-15T12:07:37.834Z,63.49
2018-04-15T12:08:37.909Z,63.51
2018-04-15T12:09:37.960Z,64.62
2018-04-15T12:10:37.901Z,59.86
2018-04-15T12:11:37.895Z,62.50
2018-04-15T12:12:37.883Z,59.35
2018-04-15T12:13:37.788Z,57.99
2018-04-15T12:14:37.901Z,56.08
2018-04-15T12:15:37.852Z,59.15
2018-04-15T12:16:37.847Z,58.53
2018-04-15T12:17:37.909Z,60.05
2018-04-15T12:18:37.852Z,59.50
2018-04-15T12:19:37.881Z,59.71
2018-04-15T12:20:37.889Z,61.25
2018-04-15T12:21:37.919Z,57.92
2018-04-15T12:22:37.849Z,56.41
2018-04-15T12:23:37.891Z,59.71
2018-04-15T12:24:37.911Z,58.25
2018-04-15T12:25:37.919Z,57.64
2018-04-15T12:26:37.855Z,56.29
2018-04-15T12:27:37.850Z,57.41
2018-04-15T12:28:37.854Z,56.08
2018-04-15T12:29:37.896Z,57.41
2018-04-15T12:30:37.927Z,58.33
2018-04-15T12:31:37.871Z,57.05
2018-04-15T12:32:37.919Z,55.72
2018-04-15T12:33:37.991Z,56.39
2018-04-15T12:34:37.810Z,58.40
2018-04-15T12:35:37.918Z,56.41
2018-04-15T12:36:37.898Z,58.84
2018-04-15T12:37:37.803Z,55.32
2018-04-15T12:38:37.926Z,56.33
2018-04-15T12:39:37.938Z,54.81
2018-04-15T12:40:37.822Z,54.58
2018-04-15T12:41:37.868Z,55.75
2018-04-15T12:42:37.829Z,55.85
2018-04-15T12:43:37.933Z,53.75
2018-04-15T12:44:37.884Z,56.65
2018-04-15T12:45:37.841Z,55.45
2018-04-15T12:46:37.912Z,54.48
2018-04-15T12:47:37.840Z,54.58
2018-04-15T12:48:37.915Z,52.70
2018-04-15T12:49:37.841Z,52.65
2018-04-15T12:50:37.867Z,52.57
2018-04-15T12:51:37.842Z,52.17
2018-04-15T12:52:37.845Z,51.84
2018-04-15T12:53:37.998Z,51.44